createdAt,value
2022-12-14T00:01:23.565Z,0.30
2022-12-14T00:03:50.762Z,0.35
2022-12-14T00:06:22.917Z,0.30
2022-12-14T00:08:51.635Z,0.30
2022-12-14T00:11:22.333Z,0.30
2022-12-14T00:13:57.012Z,0.30
2022-12-14T00:16:28.915Z,0.30
2022-12-14T00:18:57.119Z,0.30
2022-12-14T00:21:24.273Z,0.30
2022-12-14T00:23:52.082Z,0.32
2022-12-14T00:26:24.438Z,0.30
2022-12-14T00:28:53.028Z,0.38
2022-12-14T00:31:20.403Z,0.40
2022-12-14T00:33:47.119Z,0.35
2022-12-14T00:36:13.935Z,0.30
2022-12-14T00:38:41.521Z,0.30
2022-12-14T00:41:09.483Z,0.35
2022-12-14T00:43:36.422Z,0.55
2022-12-14T00:46:05.280Z,0.30
2022-12-14T00:48:32.710Z,0.30
2022-12-14T00:50:59.822Z,0.35
2022-12-14T00:53:26.467Z,0.20
2022-12-14T00:55:53.833Z,0.30
2022-12-14T00:58:22.599Z,0.40
2022-12-14T01:00:59.281Z,0.20
2022-12-14T01:03:28.246Z,0.30
2022-12-14T01:06:03.731Z,0.20
2022-12-14T01:08:35.536Z,0.38
2022-12-14T01:11:13.892Z,0.15
2022-12-14T01:13:41.528Z,0.30
2022-12-14T01:16:14.933Z,0.30
2022-12-14T01:18:43.079Z,0.43
2022-12-14T01:21:24.077Z,0.28
2022-12-14T01:23:59.123Z,0.30
2022-12-14T01:26:27.061Z,0.20
2022-12-14T01:28:58.551Z,0.20
2022-12-14T01:31:28.996Z,0.45
2022-12-14T01:33:56.541Z,0.32
2022-12-14T01:36:28.264Z,0.30
2022-12-14T01:38:56.801Z,0.25
2022-12-14T01:41:32.085Z,0.22
2022-12-14T01:44:01.514Z,0.30
2022-12-14T01:46:55.537Z,0.30
2022-12-14T01:49:36.264Z,0.20
2022-12-14T01:52:14.170Z,0.30
2022-12-14T01:54:48.801Z,0.28
2022-12-14T01:57:17.130Z,0.30
2022-12-14T01:59:44.283Z,0.35
2022-12-14T02:02:15.004Z,0.20
2022-12-14T02:04:50.189Z,0.40
2022-12-14T02:07:18.372Z,0.10
2022-12-14T02:09:48.125Z,0.38
2022-12-14T02:12:28.983Z,0.20
2022-12-14T02:14:56.101Z,0.20
2022-12-14T02:17:23.268Z,0.10
2022-12-14T02:19:50.541Z,0.30
2022-12-14T02:22:23.168Z,0.30
2022-12-14T02:25:07.922Z,0.10
2022-12-14T02:30:07.276Z,0.35
2022-12-14T02:33:02.513Z,0.20
2022-12-14T02:38:18.556Z,0.40
2022-12-14T02:40:52.486Z,0.30
2022-12-14T02:43:32.996Z,0.33
2022-12-14T02:46:02.597Z,0.38
2022-12-14T02:48:36.555Z,0.28
2022-12-14T02:51:13.551Z,0.20
2022-12-14T02:53:50.628Z,0.20
2022-12-14T02:56:21.887Z,0.30
2022-12-14T02:58:52.425Z,0.43
2022-12-14T03:01:25.336Z,0.20
2022-12-14T03:03:52.265Z,0.40
2022-12-14T03:06:27.025Z,0.17
2022-12-14T03:08:58.284Z,0.38
2022-12-14T03:11:33.417Z,0.20
2022-12-14T03:14:05.650Z,0.47
2022-12-14T03:16:38.776Z,0.20
2022-12-14T03:19:24.118Z,0.30
2022-12-14T03:21:56.332Z,0.30
2022-12-14T03:24:33.089Z,0.30
2022-12-14T03:27:25.557Z,0.30
2022-12-14T03:30:09.367Z,0.40
2022-12-14T03:32:40.005Z,0.20
2022-12-14T03:35:17.491Z,0.20
2022-12-14T03:37:53.209Z,0.30
2022-12-14T03:40:27.353Z,0.20
2022-12-14T03:43:18.512Z,0.25
2022-12-14T03:45:50.677Z,0.30
2022-12-14T03:48:29.831Z,0.30
2022-12-14T03:51:23.234Z,0.30
2022-12-14T03:54:02.275Z,0.30
2022-12-14T03:56:56.878Z,0.30
2022-12-14T03:59:27.324Z,0.40
2022-12-14T04:01:54.476Z,0.20
2022-12-14T04:04:38.520Z,0.20
2022-12-14T04:07:04.988Z,0.20
2022-12-14T04:09:49.579Z,0.10
2022-12-14T04:12:40.094Z,0.30
2022-12-14T04:15:38.985Z,0.30
2022-12-14T04:18:30.268Z,0.20
2022-12-14T04:21:19.139Z,0.47
2022-12-14T04:24:12.015Z,0.20
2022-12-14T04:26:43.450Z,0.30
2022-12-14T04:29:34.073Z,0.30
2022-12-14T04:32:05.949Z,0.20
2022-12-14T04:34:34.218Z,0.20
2022-12-14T04:37:04.711Z,0.20
2022-12-14T04:39:44.668Z,0.20
2022-12-14T04:42:11.873Z,0.22
2022-12-14T04:44:42.602Z,0.20
2022-12-14T04:47:10.914Z,0.30
2022-12-14T04:49:41.120Z,0.20
2022-12-14T04:52:12.605Z,0.20
2022-12-14T04:54:45.587Z,0.20
2022-12-14T04:57:30.874Z,0.20
2022-12-14T04:59:57.846Z,0.30
2022-12-14T05:02:30.612Z,0.30
2022-12-14T05:05:11.530Z,0.20
2022-12-14T05:08:10.268Z,0.20
2022-12-14T05:10:46.982Z,0.20
2022-12-14T05:13:18.932Z,0.20
2022-12-14T05:15:49.092Z,0.22
2022-12-14T05:18:15.947Z,0.35
2022-12-14T05:20:43.200Z,0.20
2022-12-14T05:23:10.144Z,0.20
2022-12-14T05:25:36.767Z,0.20
2022-12-14T05:28:03.565Z,0.30
2022-12-14T05:30:30.260Z,0.15
2022-12-14T05:32:57.552Z,0.20
2022-12-14T05:35:24.571Z,0.20
2022-12-14T05:37:51.207Z,0.30
2022-12-14T05:40:17.804Z,0.10
2022-12-14T05:42:46.874Z,0.28
2022-12-14T05:45:17.354Z,0.20
2022-12-14T05:47:43.965Z,0.20
2022-12-14T05:50:10.564Z,0.20
2022-12-14T05:52:37.736Z,0.20
2022-12-14T05:55:05.047Z,0.20
2022-12-14T05:57:32.048Z,0.20
2022-12-14T05:59:58.648Z,0.30
2022-12-14T06:02:27.106Z,0.17
2022-12-14T06:04:53.850Z,0.10
2022-12-14T06:07:25.932Z,0.20
2022-12-14T06:09:54.910Z,0.20
2022-12-14T06:12:22.225Z,0.20
2022-12-14T06:14:48.802Z,0.43
2022-12-14T06:17:15.535Z,0.40
2022-12-14T06:19:43.108Z,0.20
2022-12-14T06:22:16.255Z,0.20
2022-12-14T06:24:42.824Z,0.20
2022-12-14T06:27:10.014Z,0.30
2022-12-14T06:29:36.766Z,0.20
2022-12-14T06:32:03.441Z,0.47
2022-12-14T06:34:32.891Z,0.30
2022-12-14T06:37:03.501Z,0.32
2022-12-14T06:39:30.123Z,0.38
2022-12-14T06:41:57.105Z,0.70
2022-12-14T06:44:23.682Z,0.40
2022-12-14T06:46:50.747Z,0.22
2022-12-14T06:49:17.451Z,0.30
2022-12-14T06:51:44.442Z,0.20
2022-12-14T06:54:12.479Z,0.30
2022-12-14T06:56:40.620Z,0.35
2022-12-14T06:59:08.648Z,0.30
2022-12-14T07:01:36.725Z,0.20
2022-12-14T07:04:03.930Z,0.32
2022-12-14T07:06:34.429Z,0.30
2022-12-14T07:09:01.658Z,0.40
2022-12-14T07:11:30.125Z,0.25
2022-12-14T07:13:57.716Z,0.30
2022-12-14T07:16:26.064Z,0.40
2022-12-14T07:18:53.887Z,0.25
2022-12-14T07:21:21.481Z,0.30
2022-12-14T07:23:49.143Z,0.40
2022-12-14T07:26:20.654Z,0.60
2022-12-14T07:28:49.030Z,1.30
2022-12-14T07:31:20.679Z,1.70
2022-12-14T07:33:48.541Z,1.20
2022-12-14T07:36:17.498Z,0.90
2022-12-14T07:38:46.196Z,1.00
2022-12-14T07:41:23.103Z,0.73
2022-12-14T07:43:50.744Z,0.70
2022-12-14T07:46:21.301Z,0.40
2022-12-14T07:48:50.450Z,0.50
2022-12-14T07:51:19.481Z,0.60
2022-12-14T07:53:46.350Z,0.73
2022-12-14T07:56:15.489Z,0.60
2022-12-14T07:58:42.149Z,0.70
2022-12-14T08:01:15.676Z,0.70
2022-12-14T08:03:45.507Z,0.50
2022-12-14T08:06:13.431Z,0.70
2022-12-14T08:08:41.342Z,4.60
2022-12-14T08:11:09.120Z,4.32
2022-12-14T08:13:36.222Z,5.40
2022-12-14T08:16:05.523Z,5.07
2022-12-14T08:18:33.320Z,4.80
2022-12-14T08:21:01.000Z,4.53
2022-12-14T08:23:28.678Z,3.92
2022-12-14T08:25:57.341Z,3.58
2022-12-14T08:28:25.410Z,3.35
2022-12-14T08:30:52.457Z,3.13
2022-12-14T08:33:19.891Z,2.40
2022-12-14T08:35:46.462Z,2.15
2022-12-14T08:38:13.411Z,1.85
2022-12-14T08:40:40.336Z,1.92
2022-12-14T08:43:07.854Z,1.80
2022-12-14T08:45:35.030Z,1.50
2022-12-14T08:48:01.758Z,1.55
2022-12-14T08:50:29.286Z,1.40
2022-12-14T08:52:56.193Z,1.00
2022-12-14T08:55:28.288Z,1.05
2022-12-14T08:57:55.980Z,0.80
2022-12-14T09:00:22.855Z,1.23
2022-12-14T09:02:50.980Z,1.10
2022-12-14T09:05:17.720Z,1.00
2022-12-14T09:07:44.776Z,0.88
2022-12-14T09:10:12.707Z,0.80
2022-12-14T09:12:39.502Z,0.77
2022-12-14T09:15:07.802Z,0.60
2022-12-14T09:17:34.528Z,0.60
2022-12-14T09:20:01.144Z,1.05
2022-12-14T09:22:28.023Z,0.60
2022-12-14T09:24:54.671Z,0.70
2022-12-14T09:27:22.426Z,0.50
2022-12-14T09:29:50.510Z,0.77
2022-12-14T09:32:17.193Z,0.50
2022-12-14T09:34:43.788Z,0.60
2022-12-14T09:37:10.484Z,0.50
2022-12-14T09:39:37.117Z,0.63
2022-12-14T09:42:32.398Z,0.55
2022-12-14T09:45:17.761Z,0.60
2022-12-14T09:48:06.648Z,0.47
2022-12-14T09:50:33.913Z,0.55
2022-12-14T09:53:02.770Z,0.60
2022-12-14T09:55:35.013Z,0.60
2022-12-14T09:58:03.579Z,0.47
2022-12-14T10:00:34.558Z,0.57
2022-12-14T10:03:10.123Z,0.60
2022-12-14T10:06:15.657Z,0.50
2022-12-14T10:08:54.183Z,0.60
2022-12-14T10:11:50.587Z,0.70
2022-12-14T10:14:20.381Z,0.40
2022-12-14T10:17:06.095Z,0.60
2022-12-14T10:19:55.691Z,0.40
2022-12-14T10:22:30.581Z,0.38
2022-12-14T10:25:19.886Z,0.40
2022-12-14T10:28:12.042Z,0.60
2022-12-14T10:30:41.992Z,0.40
2022-12-14T10:33:24.141Z,0.60
2022-12-14T10:35:55.706Z,0.60
2022-12-14T10:38:33.491Z,0.38
2022-12-14T10:41:07.342Z,0.82
2022-12-14T10:43:36.968Z,0.50
2022-12-14T10:46:20.138Z,0.63
2022-12-14T10:48:54.960Z,0.50
2022-12-14T10:54:28.690Z,0.47
2022-12-14T10:56:55.673Z,0.93
2022-12-14T10:59:22.332Z,0.57
2022-12-14T11:02:17.463Z,0.57
2022-12-14T11:04:51.501Z,0.40
2022-12-14T11:07:21.585Z,0.60
2022-12-14T11:09:51.191Z,1.00
2022-12-14T11:12:26.251Z,0.50
2022-12-14T11:15:05.379Z,0.50
2022-12-14T11:17:39.344Z,0.57
2022-12-14T11:20:26.337Z,0.40
2022-12-14T11:23:07.185Z,0.50
2022-12-14T11:25:43.375Z,0.52
2022-12-14T11:28:36.964Z,0.70
2022-12-14T11:31:11.070Z,0.82
2022-12-14T11:33:49.974Z,0.63
2022-12-14T11:36:24.524Z,0.43
2022-12-14T11:38:55.915Z,0.60
2022-12-14T11:41:24.477Z,0.73
2022-12-14T11:44:05.965Z,1.85
2022-12-14T11:46:45.523Z,0.95
2022-12-14T11:49:33.826Z,0.60
2022-12-14T11:52:12.793Z,0.70
2022-12-14T11:54:40.269Z,0.82
2022-12-14T11:57:19.895Z,0.60
2022-12-14T12:00:00.572Z,0.80
2022-12-14T12:02:30.662Z,0.70
2022-12-14T12:04:59.768Z,1.05
2022-12-14T12:07:31.004Z,0.60
2022-12-14T12:10:24.728Z,0.90
2022-12-14T12:12:58.244Z,0.80
2022-12-14T12:15:40.563Z,0.60
2022-12-14T12:18:24.588Z,0.65
2022-12-14T12:21:01.934Z,0.57
2022-12-14T12:23:36.252Z,0.68
2022-12-14T12:26:13.083Z,0.63
2022-12-14T12:28:43.661Z,0.70
2022-12-14T12:31:16.806Z,0.50
2022-12-14T12:33:47.578Z,0.60
2022-12-14T12:36:21.879Z,0.60
2022-12-14T12:39:01.495Z,0.55
2022-12-14T12:41:30.633Z,0.73
2022-12-14T12:44:16.026Z,0.60
2022-12-14T12:47:22.145Z,0.70
2022-12-14T12:49:39.088Z,0.70
2022-12-14T12:52:13.537Z,0.70
2022-12-14T12:54:46.570Z,0.70
2022-12-14T12:57:13.814Z,0.75
2022-12-14T12:59:47.895Z,0.98
2022-12-14T13:02:22.089Z,0.80
2022-12-14T13:04:52.879Z,0.70
2022-12-14T13:07:39.057Z,0.47
2022-12-14T13:10:15.837Z,0.60
2022-12-14T13:12:47.910Z,0.60
2022-12-14T13:15:31.351Z,0.50
2022-12-14T13:21:26.985Z,0.60
2022-12-14T13:23:53.702Z,0.70
2022-12-14T13:29:43.679Z,0.63
2022-12-14T13:32:35.400Z,0.45
2022-12-14T13:35:21.385Z,0.60
2022-12-14T13:38:00.061Z,0.80
2022-12-14T13:40:27.601Z,0.63
2022-12-14T13:43:16.630Z,0.82
2022-12-14T13:45:46.332Z,0.90
2022-12-14T13:48:18.931Z,0.60
2022-12-14T13:50:52.924Z,0.60
2022-12-14T13:53:33.005Z,0.75
2022-12-14T13:56:01.166Z,1.00
2022-12-14T13:58:44.240Z,0.70
2022-12-14T14:01:23.315Z,0.70
2022-12-14T14:03:52.663Z,0.60
2022-12-14T14:06:46.486Z,0.70
2022-12-14T14:09:25.985Z,0.50
2022-12-14T14:11:59.918Z,0.50
2022-12-14T14:14:45.610Z,0.60
2022-12-14T14:17:25.001Z,0.45
2022-12-14T14:19:56.637Z,0.57
2022-12-14T14:22:29.041Z,0.55
2022-12-14T14:25:09.434Z,0.88
2022-12-14T14:27:38.681Z,1.00
2022-12-14T14:30:25.610Z,0.80
2022-12-14T14:32:54.034Z,0.98
2022-12-14T14:35:37.581Z,0.82
2022-12-14T14:38:09.786Z,0.82
2022-12-14T14:41:15.357Z,0.90
2022-12-14T14:43:35.948Z,0.68
2022-12-14T14:46:08.583Z,0.85
2022-12-14T14:48:35.717Z,0.90
2022-12-14T14:51:05.801Z,0.90
2022-12-14T14:53:36.871Z,0.70
2022-12-14T14:56:24.969Z,0.98
2022-12-14T14:58:52.103Z,1.00
2022-12-14T15:01:21.045Z,0.88
2022-12-14T15:03:50.716Z,0.63
2022-12-14T15:06:33.317Z,0.90
2022-12-14T15:09:07.346Z,0.80
2022-12-14T15:11:45.324Z,0.80
2022-12-14T15:14:35.672Z,0.70
2022-12-14T15:17:19.089Z,1.00
2022-12-14T15:19:57.342Z,1.20
2022-12-14T15:22:27.172Z,1.23
2022-12-14T15:24:59.126Z,1.00
2022-12-14T15:27:35.288Z,1.20
2022-12-14T15:30:12.621Z,1.15
2022-12-14T15:32:47.288Z,1.40
2022-12-14T15:35:23.583Z,1.50
2022-12-14T15:37:56.421Z,1.40
2022-12-14T15:40:30.369Z,1.20
2022-12-14T15:42:59.574Z,1.42
2022-12-14T15:45:31.796Z,1.15
2022-12-14T15:48:24.578Z,1.17
2022-12-14T15:51:00.723Z,1.10
2022-12-14T15:53:50.375Z,1.35
2022-12-14T15:56:37.580Z,1.63
2022-12-14T15:59:13.946Z,1.35
2022-12-14T16:01:44.908Z,1.40
2022-12-14T16:04:22.741Z,1.38
2022-12-14T16:07:08.222Z,1.25
2022-12-14T16:09:41.484Z,1.38
2022-12-14T16:12:45.392Z,1.33
2022-12-14T16:15:24.179Z,1.17
2022-12-14T16:17:59.056Z,1.67
2022-12-14T16:20:32.820Z,1.60
2022-12-14T16:23:13.624Z,1.23
2022-12-14T16:26:15.463Z,1.10
2022-12-14T16:28:43.239Z,1.25
2022-12-14T16:31:12.950Z,1.50
2022-12-14T16:33:41.561Z,1.50
2022-12-14T16:36:20.261Z,1.27
2022-12-14T16:39:13.145Z,1.20
2022-12-14T16:41:42.436Z,1.33
2022-12-14T16:44:19.254Z,1.48
2022-12-14T16:47:03.272Z,1.95
2022-12-14T16:49:35.603Z,1.30
2022-12-14T16:52:26.852Z,1.50
2022-12-14T16:55:12.204Z,1.65
2022-12-14T16:57:42.036Z,1.52
2022-12-14T17:00:19.530Z,1.25
2022-12-14T17:02:54.457Z,1.30
2022-12-14T17:05:22.457Z,1.67
2022-12-14T17:07:50.044Z,1.55
2022-12-14T17:10:22.397Z,1.75
2022-12-14T17:12:49.174Z,1.23
2022-12-14T17:15:19.617Z,1.40
2022-12-14T17:17:49.480Z,1.90
2022-12-14T17:20:24.925Z,1.33
2022-12-14T17:22:52.169Z,1.60
2022-12-14T17:25:19.226Z,1.50
2022-12-14T17:27:46.196Z,1.73
2022-12-14T17:30:17.949Z,1.50
2022-12-14T17:32:45.973Z,1.52
2022-12-14T17:35:23.086Z,1.25
2022-12-14T17:37:50.069Z,1.70
2022-12-14T17:40:16.861Z,1.45
2022-12-14T17:42:46.243Z,1.75
2022-12-14T17:45:21.717Z,1.60
2022-12-14T17:47:48.837Z,1.63
2022-12-14T17:50:17.969Z,1.10
2022-12-14T17:52:45.646Z,1.40
2022-12-14T17:55:15.948Z,1.40
2022-12-14T17:57:43.619Z,0.93
2022-12-14T18:00:55.392Z,0.80
2022-12-14T18:03:22.218Z,1.13
2022-12-14T18:05:49.658Z,1.38
2022-12-14T18:08:17.333Z,1.20
2022-12-14T18:10:47.521Z,0.90
2022-12-14T18:13:14.481Z,1.27
2022-12-14T18:15:43.889Z,1.05
2022-12-14T18:20:45.210Z,1.42
2022-12-14T18:23:16.788Z,1.30
2022-12-14T18:25:48.645Z,1.30
2022-12-14T18:28:15.513Z,1.25
2022-12-14T18:30:49.633Z,1.05
2022-12-14T18:33:18.945Z,1.48
2022-12-14T18:35:47.216Z,1.10
2022-12-14T18:38:14.987Z,1.23
2022-12-14T18:40:44.062Z,1.10
2022-12-14T18:43:23.441Z,0.88
2022-12-14T18:45:52.220Z,0.93
2022-12-14T18:48:19.816Z,1.10
2022-12-14T18:50:49.646Z,1.00
2022-12-14T18:53:19.280Z,1.30
2022-12-14T18:55:46.324Z,1.50
2022-12-14T18:58:31.129Z,0.85
2022-12-14T19:00:59.389Z,1.27
2022-12-14T19:03:26.790Z,1.45
2022-12-14T19:06:41.765Z,1.00
2022-12-14T19:08:52.319Z,0.90
2022-12-14T19:11:31.720Z,0.85
2022-12-14T19:13:58.781Z,1.30
2022-12-14T19:16:25.963Z,1.20
2022-12-14T19:18:52.738Z,1.23
2022-12-14T19:21:19.831Z,1.08
2022-12-14T19:23:47.472Z,1.48
2022-12-14T19:26:14.028Z,1.50
2022-12-14T19:28:40.666Z,1.60
2022-12-14T19:31:10.240Z,1.00
2022-12-14T19:33:37.406Z,1.10
2022-12-14T19:36:08.513Z,1.50
2022-12-14T19:38:36.476Z,0.90
2022-12-14T19:41:08.080Z,0.77
2022-12-14T19:43:35.361Z,1.00
2022-12-14T19:46:06.546Z,0.77
2022-12-14T19:48:33.248Z,1.45
2022-12-14T19:51:04.543Z,1.15
2022-12-14T19:53:33.260Z,0.80
2022-12-14T19:56:00.648Z,0.85
2022-12-14T19:58:28.438Z,0.63
2022-12-14T20:00:56.217Z,1.40
2022-12-14T20:03:24.433Z,1.20
2022-12-14T20:05:52.713Z,0.60
2022-12-14T20:08:20.328Z,0.80
2022-12-14T20:10:47.761Z,0.90
2022-12-14T20:13:14.415Z,0.80
2022-12-14T20:15:54.066Z,1.10
2022-12-14T20:18:21.919Z,0.57
2022-12-14T20:20:50.251Z,1.58
2022-12-14T20:23:21.947Z,1.50
2022-12-14T20:25:48.840Z,1.52
2022-12-14T20:28:15.434Z,1.52
2022-12-14T20:30:43.995Z,1.10
2022-12-14T20:33:10.597Z,0.85
2022-12-14T20:35:37.386Z,1.00
2022-12-14T20:38:04.007Z,1.00
2022-12-14T20:40:38.043Z,0.80
2022-12-14T20:43:07.504Z,0.80
2022-12-14T20:45:41.986Z,0.90
2022-12-14T20:48:09.052Z,1.10
2022-12-14T20:50:38.226Z,0.90
2022-12-14T20:53:05.536Z,0.68
2022-12-14T20:55:32.188Z,0.80
2022-12-14T20:57:59.082Z,0.80
2022-12-14T21:00:28.498Z,0.80
2022-12-14T21:02:55.353Z,18.13
2022-12-14T21:05:22.029Z,8.07
2022-12-14T21:07:48.752Z,3.95
2022-12-14T21:10:15.422Z,3.55
2022-12-14T21:12:42.038Z,3.42
2022-12-14T21:15:08.987Z,3.38
2022-12-14T21:17:35.892Z,2.80
2022-12-14T21:20:02.571Z,2.42
2022-12-14T21:22:30.386Z,2.08
2022-12-14T21:25:06.084Z,2.22
2022-12-14T21:27:34.747Z,0.82
2022-12-14T21:30:03.288Z,0.90
2022-12-14T21:32:30.782Z,1.38
2022-12-14T21:34:57.679Z,2.08
2022-12-14T21:37:24.700Z,1.73
2022-12-14T21:39:54.123Z,1.42
2022-12-14T21:42:23.446Z,1.55
2022-12-14T21:44:51.222Z,0.98
2022-12-14T21:47:21.874Z,1.60
2022-12-14T21:49:48.701Z,0.80
2022-12-14T21:52:17.715Z,0.65
2022-12-14T21:54:44.369Z,0.90
2022-12-14T21:57:40.664Z,0.80
2022-12-14T22:00:08.813Z,1.08
2022-12-14T22:02:41.856Z,0.90
2022-12-14T22:05:09.517Z,0.90
2022-12-14T22:07:36.699Z,0.90
2022-12-14T22:10:03.993Z,0.65
2022-12-14T22:12:30.558Z,0.70
2022-12-14T22:14:57.303Z,0.50
2022-12-14T22:17:24.024Z,0.70
2022-12-14T22:19:52.066Z,0.77
2022-12-14T22:22:18.655Z,0.63
2022-12-14T22:24:48.441Z,0.50
2022-12-14T22:27:15.106Z,0.40
2022-12-14T22:29:41.763Z,1.05
2022-12-14T22:32:11.125Z,0.57
2022-12-14T22:34:37.825Z,0.57
2022-12-14T22:37:04.400Z,0.80
2022-12-14T22:39:31.036Z,0.73
2022-12-14T22:41:58.105Z,0.60
2022-12-14T22:44:26.021Z,0.50
2022-12-14T22:46:53.480Z,0.50
2022-12-14T22:49:20.341Z,0.70
2022-12-14T22:51:47.269Z,0.60
2022-12-14T22:54:21.690Z,0.50
2022-12-14T22:57:03.087Z,0.90
2022-12-14T22:59:43.152Z,0.70
2022-12-14T23:02:09.964Z,0.40
2022-12-14T23:04:37.662Z,0.63
2022-12-14T23:07:04.786Z,0.70
2022-12-14T23:09:49.851Z,0.60
2022-12-14T23:12:35.134Z,0.70
2022-12-14T23:15:20.321Z,0.60
2022-12-14T23:18:05.486Z,0.50
2022-12-14T23:23:36.049Z,0.55
2022-12-14T23:29:07.072Z,0.50
2022-12-14T23:31:52.864Z,0.63
2022-12-14T23:34:38.158Z,0.65
2022-12-14T23:37:24.403Z,0.60
2022-12-14T23:40:09.641Z,0.40
2022-12-14T23:42:55.445Z,0.50
2022-12-14T23:45:40.796Z,0.40
2022-12-14T23:48:26.044Z,0.40
2022-12-14T23:51:11.209Z,0.30
2022-12-14T23:53:56.350Z,0.47
2022-12-14T23:56:42.616Z,0.45
2022-12-14T23:59:32.313Z,0.30
